Canalou, Missouri
Current Conditions -  °F | °C
As of 2:07 PM on Sunday 23 Nov 2014 (Local Time) from KCGI Reporting Station
Light Rain Light Rain  
Wind Chill: 56°   Ceiling: 1300
Heat Index: 56°   Visibility: 4mi
Dew Point: 55°   Wind: 10mph
Humidity: 97%   Direction: 120°ESE
Pressure: 29.39"   Gusts: NA
Location:  36.76°N, 89.69°W
Report Text: KCGI 232007Z 12009KT 4SM -RA BR SCT008 BKN013 OVC075 13/13 A2939 RMK AO2 PRESFR P0002 T01330128
Loading
Personal Weather Stations






























Interactive Weather Map New forecast layout! Learn more

10-Day Weather Forecast

Advertisements
Track Severe Weather on mobile